Time;durP1;ratioP1;P1;durP2;ratioP2;P2;SDS_P1;SDS_P2;PMS_P1;PMS_P2;Temp;Humidity;BMP_temperature;BMP_pressure;BME280_temperature;BME280_humidity;BME280_pressure;Samples;Min_cycle;Max_cycle;Signal;HPM_P1;HPM_P2
2022/05/06 00:02:07;;;;;;;18.90;13.00;;;384.40;2329.60;;;;;;4916736;29;20036;-83
2022/05/06 00:04:33;;;;;;;16.70;11.88;;;384.40;2329.60;;;;;;4916930;29;20602;-83
2022/05/06 00:06:59;;;;;;;19.20;10.88;;;384.60;2329.60;;;;;;4900696;29;20509;-81
2022/05/06 00:09:25;;;;;;;15.95;11.27;;;384.30;2329.60;;;;;;4900906;29;20032;-82
2022/05/06 00:11:51;;;;;;;17.50;11.05;;;384.50;2329.60;;;;;;4901274;29;20504;-81
2022/05/06 00:14:18;;;;;;;19.80;11.90;;;384.70;2329.60;;;;;;4900532;29;20127;-82
2022/05/06 00:16:44;;;;;;;15.70;10.43;;;384.20;2329.60;;;;;;4883063;29;20039;-82
2022/05/06 00:19:10;;;;;;;22.73;13.93;;;384.40;2329.60;;;;;;4882075;29;20381;-82
2022/05/06 00:21:36;;;;;;;23.60;15.52;;;384.70;2329.60;;;;;;4897988;29;20037;-82
2022/05/06 00:24:04;;;;;;;25.88;15.13;;;384.40;2329.60;;;;;;4900580;29;20034;-81
2022/05/06 00:26:30;;;;;;;22.88;15.63;;;384.30;2329.60;;;;;;4900318;29;20044;-80
2022/05/06 00:28:59;;;;;;;22.17;13.48;;;359.00;2329.60;;;;;;4900533;29;20034;-82
2022/05/06 00:31:26;;;;;;;16.98;12.15;;;384.00;2329.60;;;;;;4906100;29;20036;-84
2022/05/06 00:33:52;;;;;;;21.60;13.23;;;359.30;2329.60;;;;;;4882174;29;20162;-82
2022/05/06 00:36:18;;;;;;;19.55;12.80;;;359.20;2329.60;;;;;;4881225;29;20036;-82
2022/05/06 00:38:44;;;;;;;23.15;11.82;;;359.30;2329.60;;;;;;4882056;29;20483;-82
2022/05/06 00:41:10;;;;;;;17.92;12.15;;;359.20;2329.60;;;;;;4881576;29;20554;-82
2022/05/06 00:43:40;;;;;;;19.83;11.05;;;384.20;2329.60;;;;;;4882027;29;20025;-82
2022/05/06 00:46:12;;;;;;;15.70;10.98;;;384.10;2329.60;;;;;;4881520;29;20048;-82
2022/05/06 00:48:40;;;;;;;17.20;11.27;;;384.00;2329.60;;;;;;4881055;29;20422;-80
2022/05/06 00:51:08;;;;;;;14.13;10.98;;;384.20;2329.60;;;;;;4895919;29;20180;-81
2022/05/06 00:53:37;;;;;;;21.42;13.20;;;384.20;2329.60;;;;;;4916135;29;20383;-82
2022/05/06 00:56:04;;;;;;;17.63;11.35;;;359.10;2329.60;;;;;;4899515;29;20609;-82
2022/05/06 00:58:33;;;;;;;15.27;10.95;;;359.30;2329.60;;;;;;4900475;29;20032;-83
2022/05/06 01:01:07;;;;;;;14.75;10.75;;;359.30;2329.60;;;;;;4899848;29;20083;-82
2022/05/06 01:03:35;;;;;;;15.55;10.60;;;359.30;2329.60;;;;;;4899840;29;20028;-82
2022/05/06 01:06:06;;;;;;;15.30;11.15;;;359.30;2329.60;;;;;;4915810;29;20080;-83
2022/05/06 01:08:33;;;;;;;18.73;10.68;;;359.30;2329.60;;;;;;4899925;29;20028;-80
2022/05/06 01:11:00;;;;;;;14.50;9.77;;;359.10;2329.60;;;;;;4899699;29;20044;-82
2022/05/06 01:13:27;;;;;;;18.50;10.15;;;359.00;2329.60;;;;;;4898520;29;20371;-83
2022/05/06 01:15:59;;;;;;;17.27;10.00;;;359.00;2329.60;;;;;;4917438;29;20063;-82
2022/05/06 01:18:28;;;;;;;13.45;9.88;;;358.90;2329.60;;;;;;4928195;29;20032;-80
2022/05/06 01:20:57;;;;;;;18.60;10.90;;;358.90;2329.60;;;;;;4931691;29;20047;-83
2022/05/06 01:23:24;;;;;;;17.40;10.10;;;358.70;2329.60;;;;;;4900232;29;20024;-83
2022/05/06 01:25:51;;;;;;;16.33;9.98;;;359.00;2329.60;;;;;;4899516;29;20032;-83
2022/05/06 01:28:19;;;;;;;13.70;10.02;;;358.90;2329.60;;;;;;4900263;29;20056;-82
2022/05/06 01:30:48;;;;;;;17.63;10.05;;;358.80;2329.60;;;;;;4916446;29;20028;-83
2022/05/06 01:33:21;;;;;;;14.82;9.35;;;358.80;2329.60;;;;;;4900332;29;20439;-81
2022/05/06 01:36:03;;;;;;;15.65;10.32;;;358.80;2329.60;;;;;;4899856;29;20028;-82
2022/05/06 01:38:42;;;;;;;13.13;9.57;;;358.80;2329.60;;;;;;4900188;29;20028;-81
2022/05/06 01:41:16;;;;;;;19.27;11.65;;;358.90;2329.60;;;;;;4900310;29;20122;-81
2022/05/06 01:43:46;;;;;;;14.73;10.55;;;358.70;2329.60;;;;;;4900318;29;20047;-81
2022/05/06 01:46:17;;;;;;;17.95;10.57;;;358.70;2329.60;;;;;;4899452;29;20040;-80
2022/05/06 01:48:46;;;;;;;13.82;9.60;;;358.50;2329.60;;;;;;4900466;29;20032;-82
2022/05/06 01:51:15;;;;;;;20.08;10.32;;;358.60;2329.60;;;;;;4898979;29;20036;-82
2022/05/06 01:53:44;;;;;;;15.75;9.50;;;358.60;2329.60;;;;;;4900069;29;20055;-83
2022/05/06 01:56:14;;;;;;;17.33;10.43;;;358.50;2329.60;;;;;;4899722;29;20389;-81
2022/05/06 01:58:40;;;;;;;17.10;10.73;;;358.50;2329.60;;;;;;4899532;29;20088;-82
2022/05/06 02:01:06;;;;;;;19.50;11.05;;;358.70;2329.60;;;;;;4899567;29;20036;-82
2022/05/06 02:06:19;;;;;;;13.75;9.60;;;358.60;2329.60;;;;;;4915569;29;20036;-82
2022/05/06 02:08:45;;;;;;;15.40;10.30;;;358.40;2329.60;;;;;;4899513;29;20024;-81
2022/05/06 02:11:13;;;;;;;16.85;10.52;;;358.50;2329.60;;;;;;4906970;29;20130;-80
2022/05/06 02:13:39;;;;;;;16.00;10.05;;;358.50;2329.60;;;;;;4880992;29;20033;-82
2022/05/06 02:16:06;;;;;;;19.25;10.68;;;358.40;2329.60;;;;;;4898404;29;20042;-83
2022/05/06 02:18:32;;;;;;;14.40;10.57;;;333.50;2329.60;;;;;;4900365;29;20383;-83
2022/05/06 02:20:59;;;;;;;17.63;12.10;;;333.50;2329.60;;;;;;4899685;29;20368;-81
2022/05/06 02:23:29;;;;;;;16.63;12.32;;;333.70;2329.60;;;;;;4900278;29;20479;-82
2022/05/06 02:25:56;;;;;;;18.17;12.57;;;358.40;2329.60;;;;;;4899598;29;20032;-81
2022/05/06 02:28:25;;;;;;;18.83;11.48;;;358.40;2329.60;;;;;;4899819;29;20060;-83
2022/05/06 02:33:39;;;;;;;12.95;10.23;;;333.50;2329.60;;;;;;4901260;29;20125;-82
2022/05/06 02:36:09;;;;;;;15.65;10.13;;;333.40;2329.60;;;;;;4899327;29;20482;-81
2022/05/06 02:38:35;;;;;;;18.95;12.43;;;333.40;2329.60;;;;;;4900047;29;20032;-82
2022/05/06 02:41:02;;;;;;;19.90;13.32;;;333.40;2329.60;;;;;;4888142;29;20381;-82
2022/05/06 02:43:28;;;;;;;24.88;16.73;;;333.40;2329.60;;;;;;4865937;29;20025;-82
2022/05/06 02:45:54;;;;;;;18.08;13.88;;;333.40;2329.60;;;;;;4865341;29;20033;-81
2022/05/06 02:48:20;;;;;;;29.33;18.23;;;333.40;2329.60;;;;;;4865600;29;20040;-82
2022/05/06 02:50:49;;;;;;;24.90;18.00;;;333.10;2329.60;;;;;;4865213;29;20033;-82
2022/05/06 02:53:15;;;;;;;29.10;19.08;;;333.40;2329.60;;;;;;4865678;29;20029;-82
2022/05/06 02:55:44;;;;;;;30.38;20.83;;;333.40;2329.60;;;;;;4864465;29;20061;-82
2022/05/06 02:58:10;;;;;;;19.60;14.85;;;333.40;2329.60;;;;;;4865458;29;20044;-77
2022/05/06 03:00:39;;;;;;;17.35;12.45;;;333.40;2329.60;;;;;;4864623;29;20127;-81
2022/05/06 03:03:11;;;;;;;19.08;14.38;;;333.30;2329.60;;;;;;4865022;29;20040;-81
2022/05/06 03:05:52;;;;;;;20.40;13.15;;;333.40;2329.60;;;;;;4864394;29;20037;-81
2022/05/06 03:08:18;;;;;;;16.80;12.00;;;333.50;2329.60;;;;;;4865129;29;20065;-81
2022/05/06 03:11:27;;;;;;;16.60;11.00;;;333.40;2329.60;;;;;;4869626;29;20053;-81
2022/05/06 03:13:55;;;;;;;17.33;12.13;;;333.40;2329.60;;;;;;4857947;29;20056;-82
2022/05/06 03:16:21;;;;;;;19.23;11.32;;;333.20;2329.60;;;;;;4900271;29;20035;-83
2022/05/06 03:18:51;;;;;;;16.58;12.65;;;333.20;2329.60;;;;;;4917950;29;20024;-81
2022/05/06 03:21:17;;;;;;;17.35;12.02;;;333.30;2329.60;;;;;;4917847;29;20028;-79
2022/05/06 03:23:46;;;;;;;17.75;10.43;;;333.30;2329.60;;;;;;4917580;29;20597;-83
2022/05/06 03:26:12;;;;;;;14.40;9.60;;;333.30;2329.60;;;;;;4917637;29;20398;-80
2022/05/06 03:28:38;;;;;;;15.05;10.10;;;333.20;2329.60;;;;;;4902383;29;20032;-80
2022/05/06 03:31:09;;;;;;;20.85;10.50;;;333.30;2329.60;;;;;;4917226;29;20374;-79
2022/05/06 03:33:35;;;;;;;16.48;10.60;;;333.20;2329.60;;;;;;4918215;29;20541;-83
2022/05/06 03:36:03;;;;;;;17.35;10.13;;;333.20;2329.60;;;;;;4912337;29;20034;-86
2022/05/06 03:38:29;;;;;;;17.27;10.70;;;359.00;2329.60;;;;;;4899563;29;20127;-80
2022/05/06 03:41:01;;;;;;;16.77;10.18;;;333.20;2329.60;;;;;;4922867;29;20064;-80
2022/05/06 03:43:54;;;;;;;19.65;11.00;;;333.10;2329.60;;;;;;4901932;29;20028;-84
2022/05/06 03:46:23;;;;;;;21.13;12.60;;;333.20;2329.60;;;;;;4900103;29;20036;-80
2022/05/06 03:48:52;;;;;;;23.42;14.65;;;333.20;2329.60;;;;;;4900460;29;20047;-83
2022/05/06 03:54:29;;;;;;;19.73;11.13;;;332.80;2329.60;;;;;;4830431;29;20078;-83
2022/05/06 03:57:15;;;;;;;23.48;11.95;;;333.00;2329.60;;;;;;4902260;29;20113;-82
2022/05/06 04:06:17;;;;;;;20.30;11.80;;;333.20;2329.60;;;;;;4805029;29;20049;-82
2022/05/06 04:08:43;;;;;;;19.50;10.55;;;333.30;2329.60;;;;;;4804953;29;20041;-81
2022/05/06 04:11:20;;;;;;;16.10;11.10;;;333.20;2329.60;;;;;;4837123;29;20505;-82
2022/05/06 04:13:46;;;;;;;16.15;9.95;;;333.10;2329.60;;;;;;4863119;29;20041;-83
2022/05/06 04:16:14;;;;;;;21.92;11.55;;;333.20;2329.60;;;;;;4882580;29;20032;-82
2022/05/06 04:18:51;;;;;;;19.85;12.35;;;333.20;2329.60;;;;;;4881370;29;20096;-82
2022/05/06 04:31:40;;;;;;;14.88;10.93;;;333.00;2329.60;;;;;;4787043;30;20051;-81
2022/05/06 04:34:07;;;;;;;19.10;11.13;;;333.00;2329.60;;;;;;4770674;30;20121;-82
2022/05/06 04:36:33;;;;;;;21.13;11.82;;;333.20;2329.60;;;;;;4783153;29;20125;-81
2022/05/06 04:38:59;;;;;;;15.13;11.23;;;333.20;2329.60;;;;;;4833380;29;20043;-78
2022/05/06 04:41:28;;;;;;;18.10;11.85;;;333.30;2329.60;;;;;;4882351;29;20058;-80
2022/05/06 04:43:54;;;;;;;15.35;11.88;;;333.20;2329.60;;;;;;4897189;29;20081;-81
2022/05/06 04:46:20;;;;;;;18.42;11.35;;;333.10;2329.60;;;;;;4881746;29;20041;-81
2022/05/06 04:48:46;;;;;;;20.60;12.15;;;333.30;2329.60;;;;;;4881603;29;20033;-80
2022/05/06 04:51:12;;;;;;;18.00;12.57;;;333.50;2329.60;;;;;;4897300;29;20364;-82
2022/05/06 04:53:38;;;;;;;22.77;12.70;;;333.60;2329.60;;;;;;4882046;29;20036;-79
2022/05/06 04:56:13;;;;;;;20.80;11.25;;;333.60;2329.60;;;;;;4881665;29;20043;-79
2022/05/06 04:58:39;;;;;;;19.15;12.60;;;333.60;2329.60;;;;;;4880943;29;20040;-79
2022/05/06 05:01:06;;;;;;;21.67;12.25;;;333.30;2329.60;;;;;;4882486;29;20060;-85
2022/05/06 05:03:32;;;;;;;27.40;12.23;;;333.40;2329.60;;;;;;4882118;29;20186;-80
2022/05/06 05:05:59;;;;;;;20.50;12.93;;;333.40;2329.60;;;;;;4881104;29;20039;-81
2022/05/06 05:08:25;;;;;;;25.30;12.85;;;333.30;2329.60;;;;;;4881253;29;20033;-82
2022/05/06 05:10:54;;;;;;;21.70;12.20;;;333.60;2329.60;;;;;;4896864;29;20490;-82
2022/05/06 05:13:19;;;;;;;18.65;11.88;;;333.40;2329.60;;;;;;4896215;29;20024;-81
2022/05/06 05:15:45;;;;;;;18.52;12.50;;;333.60;2329.60;;;;;;4896592;29;20047;-80
2022/05/06 05:18:11;;;;;;;17.83;12.25;;;333.70;2329.60;;;;;;4884387;29;20441;-82
2022/05/06 05:20:37;;;;;;;16.88;11.38;;;333.60;2329.60;;;;;;4863182;29;20029;-78
2022/05/06 05:23:03;;;;;;;21.85;14.45;;;333.70;2329.60;;;;;;4862567;29;20025;-81
2022/05/06 05:25:32;;;;;;;26.63;15.63;;;333.50;2329.60;;;;;;4863187;29;20026;-82
2022/05/06 05:27:58;;;;;;;21.15;13.68;;;333.40;2329.60;;;;;;4869914;29;20485;-79
2022/05/06 05:31:05;;;;;;;22.10;14.10;;;333.60;2329.60;;;;;;4897326;29;20088;-81
2022/05/06 05:34:25;;;;;;;18.77;13.05;;;333.50;2329.60;;;;;;4881139;29;20025;-80
2022/05/06 05:36:28;;;;;;;23.88;15.75;;;333.70;2329.60;;;;;;4887707;29;20037;-80
2022/05/06 05:39:02;;;;;;;26.65;16.17;;;358.90;2329.60;;;;;;4880910;29;20506;-81
2022/05/06 05:41:38;;;;;;;23.63;15.90;;;333.70;2329.60;;;;;;4866192;29;20029;-81
2022/05/06 05:49:44;;;;;;;18.17;12.70;;;333.70;2329.60;;;;;;4878259;29;20040;-80
2022/05/06 05:52:32;;;;;;;23.40;15.35;;;358.40;2329.60;;;;;;4882134;29;20438;-82
2022/05/06 05:54:58;;;;;;;25.73;16.65;;;358.40;2329.60;;;;;;4865596;29;20487;-81
2022/05/06 05:57:24;;;;;;;22.40;15.80;;;358.50;2329.60;;;;;;4865843;29;20442;-80
2022/05/06 05:59:50;;;;;;;32.10;14.63;;;358.60;2329.60;;;;;;4866371;29;20029;-82
2022/05/06 06:02:23;;;;;;;19.25;12.90;;;358.90;2329.60;;;;;;4867035;29;20025;-82
2022/05/06 06:05:57;;;;;;;27.55;13.88;;;358.80;2329.60;;;;;;4870277;29;20029;-82
2022/05/06 06:08:04;;;;;;;21.05;12.57;;;358.70;2329.60;;;;;;4854702;29;20407;-82
2022/05/06 06:10:33;;;;;;;21.85;12.45;;;358.80;2329.60;;;;;;4866283;29;20033;-81
2022/05/06 06:13:04;;;;;;;21.08;12.35;;;358.80;2329.60;;;;;;4884068;29;20493;-80
2022/05/06 06:15:30;;;;;;;19.35;12.70;;;359.20;2329.60;;;;;;4885083;29;20114;-83
2022/05/06 06:18:00;;;;;;;23.02;13.20;;;358.90;2329.60;;;;;;4884069;29;20068;-82
2022/05/06 06:20:26;;;;;;;21.33;13.05;;;384.10;2329.60;;;;;;4885007;29;20024;-82
2022/05/06 06:22:55;;;;;;;21.98;12.02;;;358.90;2329.60;;;;;;4884310;29;20085;-80
2022/05/06 06:25:21;;;;;;;20.48;12.23;;;359.00;2329.60;;;;;;4884019;29;20032;-81
2022/05/06 06:27:51;;;;;;;19.48;13.00;;;359.30;2329.60;;;;;;4884310;29;20052;-81
2022/05/06 06:30:20;;;;;;;22.10;14.88;;;359.20;2329.60;;;;;;4884399;29;20451;-82
2022/05/06 06:32:46;;;;;;;35.90;18.40;;;359.10;2329.60;;;;;;4884219;29;20032;-80
2022/05/06 06:35:12;;;;;;;24.63;17.45;;;359.20;2329.60;;;;;;4884061;29;20029;-82
2022/05/06 06:37:44;;;;;;;27.98;15.32;;;359.20;2329.60;;;;;;4884570;29;20032;-82
2022/05/06 06:40:11;;;;;;;23.35;15.15;;;359.30;2329.60;;;;;;4883753;29;20372;-83
2022/05/06 06:42:37;;;;;;;23.10;13.40;;;384.00;2329.60;;;;;;4884173;29;20539;-84
2022/05/06 06:45:03;;;;;;;21.00;13.35;;;384.00;2329.60;;;;;;4896562;29;20033;-82
2022/05/06 06:47:33;;;;;;;21.33;14.90;;;384.00;2329.60;;;;;;4900349;29;20063;-82
2022/05/06 06:49:59;;;;;;;23.05;14.95;;;384.10;2329.60;;;;;;4883621;29;20028;-83
2022/05/06 06:52:25;;;;;;;22.00;16.90;;;384.00;2329.60;;;;;;4884037;29;20483;-82
2022/05/06 06:54:56;;;;;;;27.00;17.10;;;384.10;2329.60;;;;;;4883102;29;20085;-83
2022/05/06 06:57:22;;;;;;;25.42;16.25;;;384.20;2329.60;;;;;;4883672;29;20033;-84
2022/05/06 06:59:50;;;;;;;20.92;15.00;;;384.40;2329.60;;;;;;4882789;29;20474;-81
2022/05/06 07:02:16;;;;;;;24.08;14.15;;;384.40;2329.60;;;;;;4883429;29;20547;-83
2022/05/06 07:04:42;;;;;;;19.63;14.80;;;384.40;2329.60;;;;;;4883508;29;20081;-82
2022/05/06 07:12:49;;;;;;;21.42;14.15;;;384.50;2329.60;;;;;;4900852;29;20103;-83
2022/05/06 07:15:17;;;;;;;24.55;14.93;;;384.60;2329.60;;;;;;4883416;29;20027;-81
2022/05/06 07:17:46;;;;;;;22.50;14.23;;;384.80;2329.60;;;;;;4883260;29;20075;-82
2022/05/06 07:20:12;;;;;;;22.40;14.38;;;384.90;2329.60;;;;;;4883219;29;20029;-82
2022/05/06 07:22:38;;;;;;;27.45;15.05;;;409.60;2355.20;;;;;;4882536;29;20025;-83
2022/05/06 07:25:10;;;;;;;19.23;14.75;;;409.60;2355.20;;;;;;4900485;29;20037;-82
2022/05/06 07:27:36;;;;;;;21.23;14.77;;;409.70;2355.20;;;;;;4882462;29;20068;-82
2022/05/06 07:30:03;;;;;;;27.58;17.17;;;409.80;2355.20;;;;;;4882823;29;20052;-80
2022/05/06 07:32:30;;;;;;;24.48;17.38;;;409.70;2355.20;;;;;;4882406;29;20554;-81
2022/05/06 07:35:01;;;;;;;25.98;15.88;;;409.70;2355.20;;;;;;4898558;29;20115;-79
2022/05/06 07:37:33;;;;;;;23.90;15.90;;;409.90;2355.20;;;;;;4883221;29;20029;-81
2022/05/06 07:40:00;;;;;;;;;;;409.90;2355.20;;;;;;4899913;29;20208;-82
2022/05/06 07:42:28;;;;;;;22.67;12.60;;;410.10;2355.20;;;;;;4882832;29;19914;-82
2022/05/06 07:44:55;;;;;;;29.98;18.00;;;410.20;2355.20;;;;;;4900807;29;20115;-81
2022/05/06 07:47:21;;;;;;;30.35;17.27;;;410.20;2355.20;;;;;;4882412;29;20032;-82
2022/05/06 07:49:47;;;;;;;29.13;15.80;;;410.30;2355.20;;;;;;4889324;29;20085;-80
2022/05/06 07:52:13;;;;;;;22.85;13.80;;;410.30;2355.20;;;;;;4902047;29;20024;-80
2022/05/06 07:54:46;;;;;;;22.23;14.38;;;410.40;2355.20;;;;;;4900918;29;20020;-82
2022/05/06 07:57:12;;;;;;;38.63;25.48;;;410.50;2355.20;;;;;;4901201;29;20043;-82
2022/05/06 07:59:38;;;;;;;32.95;23.92;;;410.50;2355.20;;;;;;4882219;29;20025;-81
2022/05/06 08:04:49;;;;;;;22.65;14.20;;;410.30;2355.20;;;;;;4899582;29;20039;-79
2022/05/06 08:07:16;;;;;;;24.20;15.35;;;410.50;2355.20;;;;;;4881896;29;20040;-80
2022/05/06 08:09:42;;;;;;;17.70;13.73;;;410.50;2355.20;;;;;;4899396;29;20040;-82
2022/05/06 08:12:09;;;;;;;17.48;13.27;;;435.30;2355.20;;;;;;4889061;29;20055;-82
2022/05/06 08:14:35;;;;;;;18.90;11.52;;;435.30;2355.20;;;;;;4915794;29;20024;-82
2022/05/06 08:17:02;;;;;;;24.45;14.07;;;435.30;2355.20;;;;;;4916857;29;20036;-81
2022/05/06 08:19:28;;;;;;;23.08;12.13;;;435.50;2355.20;;;;;;4916494;29;20059;-82
2022/05/06 08:21:55;;;;;;;18.70;12.98;;;435.60;2355.20;;;;;;4917068;29;20028;-81
2022/05/06 08:24:22;;;;;;;15.43;11.48;;;435.60;2355.20;;;;;;4884713;29;20598;-79
2022/05/06 08:26:48;;;;;;;19.55;11.52;;;435.70;2355.20;;;;;;4916530;29;20078;-81
2022/05/06 08:29:14;;;;;;;16.27;11.65;;;435.60;2355.20;;;;;;4916402;29;20024;-81
2022/05/06 08:31:40;;;;;;;18.20;13.07;;;435.90;2355.20;;;;;;4916153;29;20079;-80
2022/05/06 08:34:11;;;;;;;23.25;13.45;;;436.10;2355.20;;;;;;4916097;29;20032;-80
2022/05/06 08:36:45;;;;;;;19.40;13.07;;;460.80;2380.80;;;;;;4916374;29;20447;-82
2022/05/06 08:39:12;;;;;;;19.00;11.85;;;460.80;2380.80;;;;;;4917314;29;20028;-81
2022/05/06 08:41:40;;;;;;;19.58;10.95;;;460.90;2380.80;;;;;;4916771;29;20092;-80
2022/05/06 08:52:36;;;;;;;15.25;10.55;;;461.10;2380.80;;;;;;4916845;29;20500;-80
2022/05/06 08:55:04;;;;;;;18.70;11.60;;;461.20;2380.80;;;;;;4915650;29;20028;-80
2022/05/06 08:57:31;;;;;;;15.82;10.57;;;461.40;2380.80;;;;;;4916593;29;20042;-80
2022/05/06 08:59:57;;;;;;;14.02;9.93;;;461.30;2380.80;;;;;;4932412;29;20032;-82
2022/05/06 09:02:22;;;;;;;14.13;10.48;;;461.40;2380.80;;;;;;4924402;29;20016;-80
2022/05/06 09:04:48;;;;;;;14.35;11.10;;;461.60;2380.80;;;;;;4937549;29;20083;-81
2022/05/06 09:07:20;;;;;;;14.98;10.02;;;461.60;2380.80;;;;;;4917329;29;20047;-81
2022/05/06 09:10:14;;;;;;;19.48;11.02;;;461.70;2380.80;;;;;;4917102;29;20047;-80
2022/05/06 09:12:45;;;;;;;17.80;11.38;;;486.40;2380.80;;;;;;4898629;29;20115;-81
2022/05/06 09:17:58;;;;;;;14.88;10.68;;;486.70;2380.80;;;;;;4899372;29;20065;-77
2022/05/06 09:20:25;;;;;;;17.25;10.88;;;486.80;2380.80;;;;;;4898343;29;20028;-76
2022/05/06 09:22:52;;;;;;;16.10;11.20;;;486.90;2380.80;;;;;;4897306;29;20064;-77
2022/05/06 09:25:38;;;;;;;20.15;10.50;;;487.00;2380.80;;;;;;4897138;29;20511;-76
2022/05/06 09:28:05;;;;;;;16.80;11.20;;;486.90;2380.80;;;;;;4896972;29;20079;-75
2022/05/06 09:30:33;;;;;;;17.33;10.70;;;487.00;2380.80;;;;;;4900281;29;20447;-75
2022/05/06 09:32:59;;;;;;;17.95;11.70;;;487.00;2380.80;;;;;;4899688;29;20036;-77
2022/05/06 09:35:31;;;;;;;13.77;9.80;;;487.30;2380.80;;;;;;4893194;29;20025;-79
2022/05/06 09:37:57;;;;;;;13.30;11.60;;;487.30;2380.80;;;;;;4863084;29;20069;-77
2022/05/06 09:40:31;;;;;;;15.65;10.48;;;512.00;2380.80;;;;;;4879350;29;20064;-80
2022/05/06 09:42:58;;;;;;;12.65;10.10;;;512.00;2380.80;;;;;;4879416;29;20459;-79
2022/05/06 09:45:38;;;;;;;17.38;9.13;;;487.20;2380.80;;;;;;4862034;29;20029;-78
2022/05/06 09:48:06;;;;;;;12.93;9.90;;;487.30;2380.80;;;;;;4879245;29;20100;-79
2022/05/06 09:50:40;;;;;;;13.00;9.73;;;487.30;2380.80;;;;;;4882583;29;20394;-80
2022/05/06 09:53:08;;;;;;;16.30;8.73;;;512.10;2380.80;;;;;;4881748;29;20032;-80
2022/05/06 09:55:37;;;;;;;12.63;8.57;;;512.20;2380.80;;;;;;4880369;29;20037;-78
2022/05/06 09:58:04;;;;;;;11.82;8.85;;;512.20;2380.80;;;;;;4897242;29;20032;-80
2022/05/06 10:00:32;;;;;;;11.63;7.85;;;512.40;2380.80;;;;;;4881582;29;20032;-78
2022/05/06 10:03:00;;;;;;;12.13;8.63;;;512.50;2380.80;;;;;;4880964;29;20059;-78
2022/05/06 10:05:29;;;;;;;10.55;6.20;;;512.50;2380.80;;;;;;4898011;29;20072;-78
2022/05/06 10:08:03;;;;;;;8.95;7.10;;;512.40;2380.80;;;;;;4896890;29;20103;-78
2022/05/06 10:10:33;;;;;;;13.65;7.80;;;512.40;2380.80;;;;;;4881800;29;20028;-78
2022/05/06 10:13:03;;;;;;;10.18;7.38;;;512.60;2380.80;;;;;;4916655;29;20031;-79
2022/05/06 10:15:30;;;;;;;10.23;7.80;;;512.80;2380.80;;;;;;4898820;29;20032;-77
2022/05/06 10:18:02;;;;;;;10.25;8.52;;;512.70;2380.80;;;;;;4916934;29;20029;-78
2022/05/06 10:20:37;;;;;;;29.03;19.87;;;512.70;2380.80;;;;;;4916065;29;20032;-78
2022/05/06 10:23:08;;;;;;;18.23;10.00;;;512.90;2380.80;;;;;;4899578;29;20761;-77
2022/05/06 10:25:43;;;;;;;16.13;8.95;;;537.60;2406.40;;;;;;4899670;29;20152;-77
2022/05/06 10:34:12;;;;;;;16.23;8.07;;;537.70;2380.80;;;;;;4917010;29;20084;-77
2022/05/06 10:36:55;;;;;;;8.50;6.18;;;537.80;2380.80;;;;;;4914006;29;20031;-77
2022/05/06 10:39:27;;;;;;;7.40;5.65;;;537.90;2406.40;;;;;;4919495;29;20042;-77
2022/05/06 10:42:09;;;;;;;11.45;6.25;;;538.00;2380.80;;;;;;4920241;29;20100;-78
2022/05/06 10:44:42;;;;;;;11.73;5.17;;;538.00;2380.80;;;;;;4902240;29;20164;-76
2022/05/06 10:47:16;;;;;;;9.65;5.28;;;538.10;2355.20;;;;;;4902799;29;20046;-79
2022/05/06 10:49:46;;;;;;;9.43;5.68;;;538.20;2304.00;;;;;;4902499;29;20172;-78
2022/05/06 10:52:20;;;;;;;6.97;4.65;;;538.20;2304.00;;;;;;4902517;29;20063;-78
2022/05/06 10:55:04;;;;;;;8.60;5.45;;;538.30;2278.40;;;;;;4901969;29;20028;-77
2022/05/06 10:57:32;;;;;;;7.97;6.35;;;538.30;2304.00;;;;;;4901276;29;20039;-77
2022/05/06 11:00:02;;;;;;;9.20;5.20;;;538.40;2278.40;;;;;;4902085;29;20048;-78
2022/05/06 11:02:31;;;;;;;8.40;5.05;;;538.50;2278.40;;;;;;4903270;29;20024;-78
2022/05/06 11:05:02;;;;;;;11.30;6.30;;;538.50;2278.40;;;;;;4901473;29;20032;-78
2022/05/06 11:07:30;;;;;;;9.18;5.40;;;563.20;2304.00;;;;;;4902492;29;20114;-78
2022/05/06 11:09:59;;;;;;;9.52;4.97;;;563.20;2304.00;;;;;;4901930;29;20096;-78
2022/05/06 11:12:35;;;;;;;7.47;4.68;;;563.30;2252.80;;;;;;4918111;29;20080;-77
2022/05/06 11:15:03;;;;;;;10.32;5.50;;;563.30;2227.20;;;;;;4901900;29;20065;-79
2022/05/06 11:17:33;;;;;;;7.13;5.90;;;563.30;2227.20;;;;;;4902613;29;20036;-79
2022/05/06 11:19:59;;;;;;;8.73;6.22;;;563.30;2201.60;;;;;;4901879;29;20027;-78
2022/05/06 11:22:25;;;;;;;9.35;5.85;;;563.50;2201.60;;;;;;4901020;29;20115;-77
2022/05/06 11:24:58;;;;;;;8.55;5.53;;;563.50;2201.60;;;;;;4918659;29;20184;-78
2022/05/06 11:27:24;;;;;;;9.15;5.22;;;563.60;2227.20;;;;;;4901957;29;20040;-77
2022/05/06 11:29:56;;;;;;;11.77;5.55;;;563.60;2176.00;;;;;;4901401;29;20036;-76
2022/05/06 11:32:23;;;;;;;11.05;6.55;;;563.70;2201.60;;;;;;4918666;29;20028;-76
2022/05/06 11:35:03;;;;;;;12.40;7.65;;;563.80;2176.00;;;;;;4918849;29;20027;-76
2022/05/06 11:37:31;;;;;;;10.18;6.82;;;563.80;2150.40;;;;;;4902104;29;20040;-76
2022/05/06 11:42:41;;;;;;;7.43;4.93;;;563.90;2201.60;;;;;;4918342;29;20051;-77
2022/05/06 11:48:07;;;;;;;14.50;10.48;;;564.00;2150.40;;;;;;4917445;29;20525;-76
2022/05/06 11:50:34;;;;;;;10.25;6.72;;;564.10;2150.40;;;;;;4900904;29;20032;-79
2022/05/06 11:53:05;;;;;;;12.90;9.98;;;564.10;2099.20;;;;;;4901546;29;20462;-75
2022/05/06 11:55:32;;;;;;;14.85;11.88;;;588.80;2099.20;;;;;;4918580;29;20039;-75
2022/05/06 11:57:58;;;;;;;10.63;5.72;;;589.00;2099.20;;;;;;4901359;29;20111;-75
2022/05/06 12:00:25;;;;;;;7.68;5.60;;;589.10;2022.40;;;;;;4917797;29;20028;-75
2022/05/06 12:02:52;;;;;;;8.70;5.22;;;589.30;2022.40;;;;;;4917614;29;20035;-75
2022/05/06 12:05:18;;;;;;;11.80;6.03;;;589.40;2048.00;;;;;;4918043;29;20068;-76
2022/05/06 12:07:49;;;;;;;9.45;5.88;;;589.50;2048.00;;;;;;4918098;29;20033;-74
2022/05/06 12:10:36;;;;;;;9.93;6.53;;;589.60;2048.00;;;;;;4901625;29;20051;-75
2022/05/06 12:13:07;;;;;;;11.10;6.78;;;589.70;1996.80;;;;;;4916641;29;20413;-75
2022/05/06 12:15:37;;;;;;;9.68;5.68;;;589.60;1996.80;;;;;;4900860;29;20108;-76
2022/05/06 12:18:19;;;;;;;10.98;7.70;;;589.70;1996.80;;;;;;4902630;29;20172;-75
2022/05/06 12:20:46;;;;;;;11.65;8.75;;;589.70;1996.80;;;;;;4918412;29;20111;-75
2022/05/06 12:23:13;;;;;;;12.38;7.25;;;614.50;1971.20;;;;;;4900844;29;20047;-75
2022/05/06 12:25:41;;;;;;;6.97;5.00;;;614.50;1945.60;;;;;;4900113;29;20028;-76
2022/05/06 12:28:10;;;;;;;10.38;5.40;;;614.50;1971.20;;;;;;4899866;29;20036;-75
2022/05/06 12:30:38;;;;;;;7.20;4.43;;;614.60;1945.60;;;;;;4900136;29;20032;-76
2022/05/06 12:33:03;;;;;;;7.13;4.63;;;614.40;1945.60;;;;;;4900575;29;20084;-74
2022/05/06 12:35:29;;;;;;;10.52;5.78;;;614.50;1945.60;;;;;;4900209;29;20416;-76
2022/05/06 12:37:58;;;;;;;5.78;4.53;;;614.60;1920.00;;;;;;4900837;29;20088;-77
2022/05/06 12:40:43;;;;;;;12.05;5.78;;;614.40;1945.60;;;;;;4900446;29;20031;-74
2022/05/06 12:43:10;;;;;;;7.05;4.75;;;589.70;1920.00;;;;;;4900558;29;20084;-74
2022/05/06 12:45:37;;;;;;;14.45;5.53;;;589.60;1945.60;;;;;;4916532;29;20466;-74
2022/05/06 12:50:48;;;;;;;8.93;4.90;;;614.40;1945.60;;;;;;4916723;29;20064;-74
2022/05/06 12:53:13;;;;;;;6.25;4.40;;;614.60;1920.00;;;;;;4917250;29;20032;-75
2022/05/06 12:55:41;;;;;;;9.55;6.03;;;614.40;1920.00;;;;;;4900673;29;20028;-75
2022/05/06 12:58:07;;;;;;;6.60;4.72;;;589.70;1920.00;;;;;;4917870;29;20043;-76
2022/05/06 13:00:33;;;;;;;9.07;4.50;;;614.40;1920.00;;;;;;4899647;29;20028;-75
2022/05/06 13:03:00;;;;;;;6.88;4.80;;;614.60;1920.00;;;;;;4917197;29;20024;-74
2022/05/06 13:05:27;;;;;;;8.18;5.22;;;589.70;1920.00;;;;;;4899806;29;20024;-74
2022/05/06 13:07:54;;;;;;;11.48;9.55;;;614.40;1920.00;;;;;;4899508;29;20092;-75
2022/05/06 13:10:19;;;;;;;8.10;5.68;;;614.60;1945.60;;;;;;4899743;29;20032;-74
2022/05/06 13:12:45;;;;;;;11.07;6.43;;;614.60;1945.60;;;;;;4881728;29;20160;-75
2022/05/06 13:15:11;;;;;;;8.38;5.28;;;614.60;1945.60;;;;;;4897379;29;20494;-76
2022/05/06 13:17:37;;;;;;;11.25;5.70;;;614.60;1945.60;;;;;;4898184;29;20081;-74
2022/05/06 13:20:04;;;;;;;12.00;7.30;;;614.60;1945.60;;;;;;4896884;29;20032;-74